createdAt,value
2022-11-08T00:00:44.434Z,95.31
2022-11-08T00:03:12.470Z,94.67
2022-11-08T00:05:58.771Z,94.54
2022-11-08T00:08:45.495Z,94.70
2022-11-08T00:11:31.494Z,94.29
2022-11-08T00:13:59.742Z,94.30
2022-11-08T00:16:28.642Z,93.37
2022-11-08T00:18:56.349Z,93.90
2022-11-08T00:21:24.285Z,93.65
2022-11-08T00:23:52.035Z,92.68
2022-11-08T00:26:19.949Z,92.59
2022-11-08T00:28:47.672Z,92.93
2022-11-08T00:31:15.557Z,93.64
2022-11-08T00:33:43.248Z,93.12
2022-11-08T00:36:11.278Z,92.62
2022-11-08T00:38:42.895Z,92.45
2022-11-08T00:41:11.928Z,92.17
2022-11-08T00:43:39.792Z,92.50
2022-11-08T00:46:07.712Z,92.92
2022-11-08T00:48:35.364Z,92.66
2022-11-08T00:51:05.903Z,92.46
2022-11-08T00:53:36.318Z,92.38
2022-11-08T00:56:11.964Z,92.75
2022-11-08T00:58:41.607Z,92.57
2022-11-08T01:01:15.957Z,92.10
2022-11-08T01:03:44.165Z,92.56
2022-11-08T01:06:14.400Z,92.65
2022-11-08T01:08:42.831Z,92.99
2022-11-08T01:11:15.394Z,92.64
2022-11-08T01:13:43.580Z,92.36
2022-11-08T01:16:15.379Z,92.39
2022-11-08T01:18:44.119Z,92.65
2022-11-08T01:21:12.474Z,92.74
2022-11-08T01:23:40.647Z,93.17
2022-11-08T01:26:12.217Z,93.24
2022-11-08T01:28:39.998Z,93.48
2022-11-08T01:31:16.810Z,93.93
2022-11-08T01:33:50.838Z,94.02
2022-11-08T01:36:22.420Z,93.83
2022-11-08T01:38:50.639Z,94.10
2022-11-08T01:41:21.299Z,94.43
2022-11-08T01:43:58.921Z,94.62
2022-11-08T01:46:42.436Z,94.75
2022-11-08T01:49:19.056Z,94.73
2022-11-08T01:51:49.715Z,94.94
2022-11-08T01:54:25.403Z,95.09
2022-11-08T01:56:54.906Z,94.91
2022-11-08T01:59:22.747Z,95.17
2022-11-08T02:01:56.761Z,95.16
2022-11-08T02:04:24.561Z,94.61
2022-11-08T02:06:52.813Z,94.72
2022-11-08T02:09:20.440Z,94.77
2022-11-08T02:11:49.340Z,94.95
2022-11-08T02:14:18.094Z,94.42
2022-11-08T02:16:46.013Z,94.58
2022-11-08T02:19:25.312Z,94.39
2022-11-08T02:21:58.220Z,94.44
2022-11-08T02:24:25.957Z,94.66
2022-11-08T02:26:56.406Z,94.77
2022-11-08T02:29:27.323Z,94.12
2022-11-08T02:31:56.634Z,94.50
2022-11-08T02:34:29.741Z,94.66
2022-11-08T02:36:58.561Z,95.07
2022-11-08T02:39:26.268Z,95.32
2022-11-08T02:41:54.436Z,95.39
2022-11-08T02:44:22.039Z,95.33
2022-11-08T02:46:50.112Z,95.11
2022-11-08T02:49:17.829Z,95.16
2022-11-08T02:51:45.745Z,95.08
2022-11-08T02:57:23.110Z,95.72
2022-11-08T02:59:51.042Z,95.91
2022-11-08T03:02:18.709Z,95.95
2022-11-08T03:04:46.738Z,95.90
2022-11-08T03:07:14.311Z,95.67
2022-11-08T03:09:42.118Z,95.77
2022-11-08T03:12:09.762Z,95.86
2022-11-08T03:14:37.604Z,96.01
2022-11-08T03:17:05.289Z,95.90
2022-11-08T03:19:33.157Z,95.88
2022-11-08T03:22:01.665Z,95.64
2022-11-08T03:24:29.520Z,95.51
2022-11-08T03:26:57.120Z,95.44
2022-11-08T03:29:25.090Z,95.49
2022-11-08T03:31:52.740Z,95.28
2022-11-08T03:34:20.566Z,95.01
2022-11-08T03:36:48.680Z,95.01
2022-11-08T03:39:16.544Z,94.98
2022-11-08T03:41:44.725Z,94.35
2022-11-08T03:44:12.554Z,94.34
2022-11-08T03:46:40.157Z,94.25
2022-11-08T03:49:08.248Z,94.56
2022-11-08T03:51:35.826Z,94.18
2022-11-08T03:54:03.959Z,94.15
2022-11-08T03:56:31.711Z,94.09
2022-11-08T03:58:59.556Z,93.81
2022-11-08T04:01:27.137Z,93.78
2022-11-08T04:03:55.083Z,93.52
2022-11-08T04:06:22.780Z,93.69
2022-11-08T04:08:50.603Z,94.20
2022-11-08T04:11:36.732Z,94.30
2022-11-08T04:14:23.415Z,94.18
2022-11-08T04:16:51.058Z,94.16
2022-11-08T04:19:37.703Z,94.29
2022-11-08T04:22:06.448Z,94.08
2022-11-08T04:24:34.409Z,94.21
2022-11-08T04:27:02.767Z,94.35
2022-11-08T04:29:31.006Z,94.72
2022-11-08T04:31:58.625Z,95.18
2022-11-08T04:34:26.505Z,95.39
2022-11-08T04:36:55.459Z,95.63
2022-11-08T04:39:23.277Z,95.50
2022-11-08T04:41:51.027Z,95.82
2022-11-08T04:44:18.904Z,95.69
2022-11-08T04:46:46.476Z,96.04
2022-11-08T04:49:14.301Z,96.11
2022-11-08T04:51:41.820Z,95.81
2022-11-08T04:54:11.780Z,95.79
2022-11-08T04:56:41.648Z,95.73
2022-11-08T04:59:12.017Z,95.75
2022-11-08T05:01:40.227Z,95.47
2022-11-08T05:04:08.266Z,95.38
2022-11-08T05:06:35.835Z,94.94
2022-11-08T05:09:04.018Z,95.09
2022-11-08T05:11:31.998Z,94.84
2022-11-08T05:13:59.951Z,94.88
2022-11-08T05:16:30.144Z,95.15
2022-11-08T05:18:58.334Z,95.17
2022-11-08T05:21:45.608Z,95.10
2022-11-08T05:24:16.591Z,94.99
2022-11-08T05:26:47.114Z,94.49
2022-11-08T05:29:16.294Z,95.01
2022-11-08T05:31:44.424Z,95.01
2022-11-08T05:34:12.373Z,95.36
2022-11-08T05:36:39.884Z,96.13
2022-11-08T05:39:07.787Z,96.28
2022-11-08T05:41:35.470Z,96.53
2022-11-08T05:44:03.290Z,97.23
2022-11-08T05:46:30.859Z,97.26
2022-11-08T05:48:58.969Z,98.34
2022-11-08T05:51:26.588Z,98.55
2022-11-08T05:53:54.386Z,99.08
2022-11-08T05:56:22.226Z,99.24
2022-11-08T05:58:50.180Z,99.97
2022-11-08T06:01:19.709Z,100.00
2022-11-08T06:03:48.559Z,100.00
2022-11-08T06:06:21.861Z,100.00
2022-11-08T06:08:51.540Z,100.00
2022-11-08T06:11:24.246Z,100.00
2022-11-08T06:13:53.436Z,100.00
2022-11-08T06:16:23.571Z,100.00
2022-11-08T06:18:51.799Z,100.00
2022-11-08T06:21:21.362Z,100.00
2022-11-08T06:23:51.816Z,100.00
2022-11-08T06:26:19.437Z,100.00
2022-11-08T06:28:47.359Z,100.00
2022-11-08T06:31:14.856Z,100.00
2022-11-08T06:33:42.736Z,100.00
2022-11-08T06:36:10.399Z,100.00
2022-11-08T06:38:38.310Z,99.44
2022-11-08T06:41:05.914Z,97.92
2022-11-08T06:43:34.084Z,96.53
2022-11-08T06:46:04.365Z,95.04
2022-11-08T06:48:35.931Z,93.79
2022-11-08T06:51:04.151Z,92.60
2022-11-08T06:53:32.780Z,91.68
2022-11-08T06:56:01.723Z,90.20
2022-11-08T06:58:30.541Z,89.46
2022-11-08T07:00:58.801Z,88.48
2022-11-08T07:03:26.657Z,88.12
2022-11-08T07:05:54.672Z,87.68
2022-11-08T07:08:24.277Z,87.00
2022-11-08T07:10:52.206Z,86.29
2022-11-08T07:13:20.541Z,85.83
2022-11-08T07:15:48.816Z,85.52
2022-11-08T07:18:18.422Z,85.24
2022-11-08T07:20:46.202Z,84.93
2022-11-08T07:23:14.580Z,84.85
2022-11-08T07:25:42.324Z,84.74
2022-11-08T07:28:18.512Z,84.91
2022-11-08T07:30:47.384Z,84.77
2022-11-08T07:33:16.886Z,84.96
2022-11-08T07:35:47.140Z,84.59
2022-11-08T07:38:15.151Z,84.35
2022-11-08T07:40:42.997Z,84.18
2022-11-08T07:43:23.366Z,83.52
2022-11-08T07:45:59.792Z,83.08
2022-11-08T07:48:28.837Z,82.42
2022-11-08T07:50:56.457Z,81.43
2022-11-08T07:53:24.441Z,80.30
2022-11-08T07:55:52.319Z,80.28
2022-11-08T07:58:20.318Z,79.42
2022-11-08T08:00:49.952Z,77.36
2022-11-08T08:03:18.754Z,74.61
2022-11-08T08:05:57.930Z,72.52
2022-11-08T08:08:27.929Z,69.74
2022-11-08T08:10:59.940Z,66.75
2022-11-08T08:13:28.397Z,64.22
2022-11-08T08:16:00.323Z,61.63
2022-11-08T08:18:29.766Z,60.21
2022-11-08T08:20:57.817Z,59.46
2022-11-08T08:23:26.205Z,59.58
2022-11-08T08:25:53.963Z,59.23
2022-11-08T08:28:21.846Z,56.47
2022-11-08T08:30:49.478Z,53.54
2022-11-08T08:33:34.718Z,51.03
2022-11-08T08:36:02.694Z,48.17
2022-11-08T08:38:36.790Z,45.86
2022-11-08T08:41:07.692Z,43.76
2022-11-08T08:43:35.487Z,42.82
2022-11-08T08:46:04.815Z,41.73
2022-11-08T08:48:33.590Z,40.43
2022-11-08T08:51:01.236Z,39.98
2022-11-08T08:53:29.057Z,38.88
2022-11-08T08:55:56.740Z,38.21
2022-11-08T08:58:24.950Z,37.93
2022-11-08T09:03:40.293Z,37.09
2022-11-08T09:06:08.168Z,36.30
2022-11-08T09:08:36.392Z,36.52
2022-11-08T09:11:04.537Z,36.59
2022-11-08T09:13:32.760Z,36.01
2022-11-08T09:16:02.730Z,35.11
2022-11-08T09:18:31.216Z,34.87
2022-11-08T09:20:59.054Z,35.24
2022-11-08T09:23:27.247Z,35.21
2022-11-08T09:25:59.889Z,35.87
2022-11-08T09:28:31.426Z,36.37
2022-11-08T09:31:09.064Z,36.01
2022-11-08T09:33:39.178Z,35.64
2022-11-08T09:36:08.852Z,35.89
2022-11-08T09:38:36.726Z,35.76
2022-11-08T09:41:17.111Z,36.10
2022-11-08T09:43:56.470Z,35.69
2022-11-08T09:46:35.229Z,35.53
2022-11-08T09:49:06.332Z,35.82
2022-11-08T09:51:36.277Z,35.49
2022-11-08T09:54:08.644Z,35.43
2022-11-08T09:56:38.289Z,35.75
2022-11-08T09:59:28.050Z,36.27
2022-11-08T10:01:55.724Z,36.30
2022-11-08T10:04:29.918Z,36.43
2022-11-08T10:07:24.151Z,37.83
2022-11-08T10:10:22.801Z,40.24
2022-11-08T10:13:17.141Z,43.29
2022-11-08T10:15:45.034Z,45.41
2022-11-08T10:18:27.779Z,47.10
2022-11-08T10:20:55.706Z,48.43
2022-11-08T10:23:46.574Z,49.55
2022-11-08T10:26:25.665Z,50.70
2022-11-08T10:29:06.753Z,51.32
2022-11-08T10:31:37.486Z,51.81
2022-11-08T10:34:17.760Z,52.29
2022-11-08T10:36:49.219Z,53.01
2022-11-08T10:39:25.632Z,53.38
2022-11-08T10:42:15.855Z,54.02
2022-11-08T10:44:44.110Z,54.40
2022-11-08T10:47:28.710Z,54.60
2022-11-08T10:50:02.476Z,54.81
2022-11-08T10:52:46.666Z,55.16
2022-11-08T10:55:24.943Z,55.59
2022-11-08T10:57:52.805Z,55.71
2022-11-08T11:00:23.408Z,55.76
2022-11-08T11:03:01.081Z,55.70
2022-11-08T11:05:40.781Z,55.69
2022-11-08T11:08:08.670Z,55.40
2022-11-08T11:10:44.637Z,55.41
2022-11-08T11:13:18.479Z,55.57
2022-11-08T11:16:04.183Z,55.83
2022-11-08T11:18:39.362Z,55.94
2022-11-08T11:21:23.045Z,55.77
2022-11-08T11:24:07.712Z,55.93
2022-11-08T11:26:45.690Z,55.78
2022-11-08T11:29:21.525Z,55.91
2022-11-08T11:31:51.568Z,55.95
2022-11-08T11:34:19.432Z,55.96
2022-11-08T11:37:12.696Z,56.09
2022-11-08T11:39:45.889Z,56.28
2022-11-08T11:42:46.691Z,55.90
2022-11-08T11:45:23.870Z,55.43
2022-11-08T11:47:57.713Z,55.44
2022-11-08T11:50:29.756Z,55.52
2022-11-08T11:52:59.195Z,55.58
2022-11-08T11:55:47.076Z,55.46
2022-11-08T11:58:32.992Z,56.07
2022-11-08T12:01:39.917Z,56.28
2022-11-08T12:04:21.479Z,56.03
2022-11-08T12:06:52.376Z,56.94
2022-11-08T12:09:47.331Z,56.89
2022-11-08T12:12:33.409Z,57.40
2022-11-08T12:15:23.898Z,57.53
2022-11-08T12:18:03.726Z,57.15
2022-11-08T12:20:54.017Z,57.12
2022-11-08T12:23:34.014Z,57.38
2022-11-08T12:26:06.771Z,57.19
2022-11-08T12:28:46.048Z,57.06
2022-11-08T12:31:40.145Z,57.02
2022-11-08T12:34:35.503Z,57.27
2022-11-08T12:37:16.126Z,57.08
2022-11-08T12:39:55.762Z,56.83
2022-11-08T12:42:44.179Z,57.25
2022-11-08T12:45:43.032Z,57.38
2022-11-08T12:48:28.741Z,57.55
2022-11-08T12:51:02.109Z,58.11
2022-11-08T12:53:29.733Z,58.20
2022-11-08T12:55:58.869Z,58.25
2022-11-08T12:58:36.664Z,58.15
2022-11-08T13:01:15.322Z,58.18
2022-11-08T13:03:42.984Z,57.88
2022-11-08T13:06:24.258Z,57.91
2022-11-08T13:09:09.107Z,58.48
2022-11-08T13:11:52.715Z,58.17
2022-11-08T13:14:21.905Z,58.36
2022-11-08T13:17:08.570Z,58.49
2022-11-08T13:20:05.782Z,58.64
2022-11-08T13:22:40.598Z,58.73
2022-11-08T13:25:28.969Z,58.66
2022-11-08T13:27:57.117Z,58.52
2022-11-08T13:30:25.410Z,58.48
2022-11-08T13:32:59.300Z,58.69
2022-11-08T13:36:13.918Z,59.34
2022-11-08T13:38:58.919Z,58.87
2022-11-08T13:41:27.268Z,58.97
2022-11-08T13:43:56.250Z,59.24
2022-11-08T13:46:26.923Z,59.40
2022-11-08T13:49:06.014Z,59.74
2022-11-08T13:51:41.601Z,60.06
2022-11-08T13:54:26.233Z,60.23
2022-11-08T13:57:01.883Z,60.65
2022-11-08T13:59:32.512Z,61.21
2022-11-08T14:02:05.592Z,61.66
2022-11-08T14:04:40.862Z,61.68
2022-11-08T14:07:24.874Z,61.96
2022-11-08T14:10:17.765Z,61.93
2022-11-08T14:12:54.565Z,62.45
2022-11-08T14:15:39.574Z,62.65
2022-11-08T14:18:32.610Z,62.86
2022-11-08T14:21:00.357Z,63.16
2022-11-08T14:23:40.628Z,63.48
2022-11-08T14:26:18.146Z,64.07
2022-11-08T14:28:47.748Z,64.56
2022-11-08T14:31:34.930Z,65.11
2022-11-08T14:34:03.017Z,65.48
2022-11-08T14:36:31.970Z,66.03
2022-11-08T14:39:12.150Z,66.68
2022-11-08T14:41:44.835Z,67.22
2022-11-08T14:44:16.069Z,67.82
2022-11-08T14:46:43.724Z,68.30
2022-11-08T14:49:29.372Z,69.00
2022-11-08T14:52:14.187Z,69.22
2022-11-08T14:54:47.565Z,69.86
2022-11-08T14:57:31.837Z,70.46
2022-11-08T15:00:21.724Z,71.05
2022-11-08T15:03:03.228Z,71.55
2022-11-08T15:05:54.195Z,72.28
2022-11-08T15:08:52.917Z,73.29
2022-11-08T15:11:31.007Z,74.07
2022-11-08T15:14:05.681Z,74.56
2022-11-08T15:16:45.081Z,75.66
2022-11-08T15:19:31.452Z,76.45
2022-11-08T15:22:20.286Z,77.69
2022-11-08T15:24:47.925Z,78.31
2022-11-08T15:27:17.197Z,78.64
2022-11-08T15:30:08.815Z,79.43
2022-11-08T15:32:39.711Z,79.91
2022-11-08T15:35:15.643Z,80.32
2022-11-08T15:37:43.829Z,80.93
2022-11-08T15:40:31.860Z,81.26
2022-11-08T15:43:00.323Z,81.83
2022-11-08T15:45:32.459Z,82.15
2022-11-08T15:48:21.279Z,82.73
2022-11-08T15:50:49.963Z,83.86
2022-11-08T15:53:18.276Z,84.03
2022-11-08T15:56:02.046Z,85.17
2022-11-08T15:58:32.619Z,86.28
2022-11-08T16:01:03.042Z,86.85
2022-11-08T16:03:31.272Z,86.99
2022-11-08T16:05:58.978Z,87.52
2022-11-08T16:08:27.147Z,87.94
2022-11-08T16:10:59.949Z,88.46
2022-11-08T16:13:34.446Z,88.61
2022-11-08T16:16:04.100Z,89.38
2022-11-08T16:18:34.236Z,89.99
2022-11-08T16:21:02.175Z,90.17
2022-11-08T16:23:30.060Z,90.53
2022-11-08T16:26:00.861Z,91.23
2022-11-08T16:28:38.253Z,91.86
2022-11-08T16:31:20.443Z,92.35
2022-11-08T16:33:48.655Z,92.51
2022-11-08T16:36:24.469Z,93.06
2022-11-08T16:38:55.004Z,93.16
2022-11-08T16:41:23.999Z,93.61
2022-11-08T16:43:52.112Z,93.98
2022-11-08T16:46:21.503Z,94.17
2022-11-08T16:48:56.861Z,94.52
2022-11-08T16:51:28.232Z,94.55
2022-11-08T16:53:56.124Z,94.47
2022-11-08T16:56:24.096Z,94.84
2022-11-08T16:58:51.915Z,95.11
2022-11-08T17:01:23.288Z,95.02
2022-11-08T17:03:51.241Z,95.20
2022-11-08T17:06:19.132Z,94.85
2022-11-08T17:08:47.507Z,95.14
2022-11-08T17:11:19.563Z,95.50
2022-11-08T17:13:47.998Z,95.59
2022-11-08T17:16:16.217Z,95.70
2022-11-08T17:18:47.432Z,96.17
2022-11-08T17:21:43.011Z,96.40
2022-11-08T17:24:05.790Z,96.21
2022-11-08T17:26:33.398Z,96.72
2022-11-08T17:29:01.277Z,96.55
2022-11-08T17:31:28.868Z,97.13
2022-11-08T17:33:56.786Z,97.19
2022-11-08T17:36:24.411Z,97.66
2022-11-08T17:38:52.344Z,98.22
2022-11-08T17:41:19.962Z,98.39
2022-11-08T17:43:48.006Z,98.64
2022-11-08T17:46:15.774Z,98.81
2022-11-08T17:48:43.668Z,98.81
2022-11-08T17:51:13.097Z,98.75
2022-11-08T17:53:41.320Z,98.57
2022-11-08T17:56:12.376Z,98.33
2022-11-08T17:58:41.270Z,98.26
2022-11-08T18:01:09.556Z,98.59
2022-11-08T18:03:37.601Z,98.67
2022-11-08T18:06:11.290Z,98.60
2022-11-08T18:08:39.443Z,98.20
2022-11-08T18:11:07.488Z,98.01
2022-11-08T18:13:35.912Z,97.78
2022-11-08T18:16:18.474Z,97.58
2022-11-08T18:18:47.210Z,97.78
2022-11-08T18:21:15.680Z,97.29
2022-11-08T18:23:46.396Z,97.36
2022-11-08T18:26:15.895Z,97.55
2022-11-08T18:28:44.997Z,97.02
2022-11-08T18:31:18.729Z,97.04
2022-11-08T18:33:47.262Z,96.52
2022-11-08T18:36:17.980Z,96.56
2022-11-08T18:38:46.186Z,97.08
2022-11-08T18:41:22.446Z,97.37
2022-11-08T18:43:50.469Z,97.35
2022-11-08T18:46:21.436Z,97.74
2022-11-08T18:48:50.420Z,97.62
2022-11-08T18:51:20.251Z,97.51
2022-11-08T18:53:48.485Z,97.71
2022-11-08T18:56:16.445Z,97.73
2022-11-08T18:58:45.471Z,97.83
2022-11-08T19:01:13.533Z,97.94
2022-11-08T19:03:41.768Z,98.05
2022-11-08T19:06:09.928Z,97.84
2022-11-08T19:08:37.914Z,98.15
2022-11-08T19:11:09.502Z,98.37
2022-11-08T19:13:39.483Z,98.45
2022-11-08T19:16:14.696Z,98.28
2022-11-08T19:18:43.832Z,98.79
2022-11-08T19:21:17.729Z,98.91
2022-11-08T19:23:46.313Z,99.21
2022-11-08T19:26:22.213Z,98.98
2022-11-08T19:28:51.309Z,99.40
2022-11-08T19:31:21.495Z,99.17
2022-11-08T19:33:52.196Z,99.14
2022-11-08T19:36:22.189Z,99.39
2022-11-08T19:38:50.384Z,99.83
2022-11-08T19:41:20.580Z,99.91
2022-11-08T19:43:49.835Z,100.00
2022-11-08T19:46:23.925Z,100.00
2022-11-08T19:48:52.656Z,100.00
2022-11-08T19:51:22.822Z,100.00
2022-11-08T19:53:53.882Z,100.00
2022-11-08T19:56:29.229Z,100.00
2022-11-08T19:59:05.962Z,100.00
2022-11-08T20:01:36.338Z,100.00
2022-11-08T20:04:06.688Z,100.00
2022-11-08T20:06:35.287Z,100.00
2022-11-08T20:09:04.375Z,100.00
2022-11-08T20:11:35.902Z,100.00
2022-11-08T20:14:05.284Z,100.00
2022-11-08T20:16:36.490Z,100.00
2022-11-08T20:19:10.766Z,100.00
2022-11-08T20:21:42.027Z,100.00
2022-11-08T20:24:11.581Z,100.00
2022-11-08T20:26:41.455Z,100.00
2022-11-08T20:29:09.800Z,100.00
2022-11-08T20:31:38.821Z,100.00
2022-11-08T20:34:10.198Z,100.00
2022-11-08T20:36:38.937Z,100.00
2022-11-08T20:39:08.115Z,100.00
2022-11-08T20:41:37.747Z,100.00
2022-11-08T20:44:06.785Z,100.00
2022-11-08T20:46:36.007Z,100.00
2022-11-08T20:49:05.164Z,100.00
2022-11-08T20:51:33.321Z,100.00
2022-11-08T20:54:02.025Z,100.00
2022-11-08T20:56:33.622Z,100.00
2022-11-08T20:59:01.782Z,100.00
2022-11-08T21:01:32.605Z,100.00
2022-11-08T21:04:01.154Z,100.00
2022-11-08T21:06:32.943Z,100.00
2022-11-08T21:09:23.365Z,100.00
2022-11-08T21:11:51.787Z,100.00
2022-11-08T21:14:19.299Z,100.00
2022-11-08T21:17:15.130Z,100.00
2022-11-08T21:19:34.553Z,100.00
2022-11-08T21:22:17.027Z,100.00
2022-11-08T21:24:47.644Z,100.00
2022-11-08T21:27:16.373Z,100.00
2022-11-08T21:29:44.289Z,100.00
2022-11-08T21:32:11.897Z,100.00
2022-11-08T21:34:45.483Z,100.00
2022-11-08T21:37:13.963Z,100.00
2022-11-08T21:39:42.058Z,100.00
2022-11-08T21:42:09.689Z,100.00
2022-11-08T21:44:37.502Z,100.00
2022-11-08T21:47:05.046Z,100.00
2022-11-08T21:49:32.831Z,100.00
2022-11-08T21:52:00.407Z,100.00
2022-11-08T21:54:28.303Z,100.00
2022-11-08T21:56:55.739Z,100.00
2022-11-08T21:59:23.524Z,100.00
2022-11-08T22:01:51.003Z,100.00
2022-11-08T22:04:18.874Z,100.00
2022-11-08T22:06:47.794Z,100.00
2022-11-08T22:09:15.928Z,100.00
2022-11-08T22:11:43.605Z,100.00
2022-11-08T22:14:11.523Z,100.00
2022-11-08T22:16:39.176Z,100.00
2022-11-08T22:19:09.568Z,100.00
2022-11-08T22:21:41.344Z,100.00
2022-11-08T22:24:22.557Z,100.00
2022-11-08T22:26:51.948Z,100.00
2022-11-08T22:29:19.905Z,100.00
2022-11-08T22:31:47.965Z,100.00
2022-11-08T22:34:16.085Z,100.00
2022-11-08T22:36:45.580Z,100.00
2022-11-08T22:39:16.918Z,100.00
2022-11-08T22:41:46.134Z,100.00
2022-11-08T22:44:14.906Z,100.00
2022-11-08T22:46:43.396Z,100.00
2022-11-08T22:49:12.164Z,100.00
2022-11-08T22:51:40.607Z,100.00
2022-11-08T22:54:08.935Z,100.00
2022-11-08T22:56:36.594Z,100.00
2022-11-08T22:59:04.880Z,100.00
2022-11-08T23:01:32.741Z,100.00
2022-11-08T23:04:00.621Z,100.00
2022-11-08T23:06:28.467Z,100.00
2022-11-08T23:08:56.384Z,100.00
2022-11-08T23:11:42.540Z,100.00
2022-11-08T23:14:33.964Z,100.00
2022-11-08T23:17:03.349Z,100.00
2022-11-08T23:19:50.024Z,100.00
2022-11-08T23:22:36.551Z,100.00
2022-11-08T23:25:04.817Z,100.00
2022-11-08T23:27:50.960Z,100.00
2022-11-08T23:30:38.113Z,100.00
2022-11-08T23:33:06.920Z,100.00
2022-11-08T23:35:35.211Z,100.00
2022-11-08T23:38:02.954Z,100.00
2022-11-08T23:40:49.444Z,100.00
2022-11-08T23:43:38.092Z,100.00
2022-11-08T23:46:11.951Z,100.00
2022-11-08T23:48:40.778Z,100.00
2022-11-08T23:51:08.959Z,100.00
2022-11-08T23:53:37.442Z,100.00
2022-11-08T23:56:05.903Z,100.00
2022-11-08T23:58:33.987Z,100.00
